Time;durP1;ratioP1;P1;durP2;ratioP2;P2;SDS_P1;SDS_P2;PMS_P1;PMS_P2;Temp;Humidity;BMP_temperature;BMP_pressure;BME280_temperature;BME280_humidity;BME280_pressure;Samples;Min_cycle;Max_cycle;Signal;HPM_P1;HPM_P2
2023/12/27 00:00:58;;;;;;;12.80;12.40;;;10.00;99.90;;;;;;5120198;27;20656;-62
2023/12/27 00:03:25;;;;;;;13.20;12.70;;;10.10;99.90;;;;;;5108396;27;20205;-60
2023/12/27 00:05:52;;;;;;;13.87;13.37;;;10.10;99.90;;;;;;5118058;27;20206;-61
2023/12/27 00:08:19;;;;;;;13.47;12.97;;;10.10;99.90;;;;;;5116818;27;20229;-62
2023/12/27 00:10:45;;;;;;;13.43;12.93;;;10.10;99.90;;;;;;5116386;27;20221;-62
2023/12/27 00:13:14;;;;;;;13.77;13.27;;;10.10;99.90;;;;;;5116614;27;20296;-62
2023/12/27 00:15:44;;;;;;;14.60;14.10;;;10.10;99.90;;;;;;5116465;27;20615;-62
2023/12/27 00:18:12;;;;;;;14.53;14.03;;;10.00;99.90;;;;;;5120077;27;20215;-62
2023/12/27 00:20:38;;;;;;;14.67;14.17;;;10.00;99.90;;;;;;5117801;27;20225;-60
2023/12/27 00:23:05;;;;;;;14.73;14.23;;;9.90;99.90;;;;;;5120056;27;20607;-61
2023/12/27 00:25:32;;;;;;;14.03;13.53;;;9.80;99.90;;;;;;5118157;27;20679;-61
2023/12/27 00:27:59;;;;;;;14.20;13.70;;;9.90;99.90;;;;;;5119238;27;20255;-62
2023/12/27 00:30:27;;;;;;;14.20;13.70;;;9.90;99.90;;;;;;5118669;27;20226;-62
2023/12/27 00:32:54;;;;;;;14.57;14.07;;;9.90;99.90;;;;;;5117361;27;20205;-61
2023/12/27 00:35:20;;;;;;;13.17;12.77;;;9.90;99.90;;;;;;5119083;27;20240;-61
2023/12/27 00:37:47;;;;;;;14.50;14.00;;;10.00;99.90;;;;;;5119201;27;20198;-60
2023/12/27 00:40:14;;;;;;;13.60;13.10;;;10.00;99.90;;;;;;5119938;27;20224;-62
2023/12/27 00:42:41;;;;;;;15.07;14.47;;;10.00;99.90;;;;;;5119556;27;20210;-60
2023/12/27 00:45:09;;;;;;;13.97;13.47;;;10.00;99.90;;;;;;5121423;27;20216;-61
2023/12/27 00:47:37;;;;;;;14.37;13.87;;;9.90;99.90;;;;;;5119262;27;20205;-61
2023/12/27 00:50:04;;;;;;;13.93;13.43;;;9.90;99.90;;;;;;5119130;27;20222;-61
2023/12/27 00:52:31;;;;;;;14.73;14.23;;;9.80;99.90;;;;;;5118727;27;20205;-62
2023/12/27 00:54:59;;;;;;;14.83;14.33;;;9.80;99.90;;;;;;5119841;28;20204;-62
2023/12/27 00:57:26;;;;;;;14.50;14.00;;;9.70;99.90;;;;;;5118924;27;20224;-61
2023/12/27 00:59:53;;;;;;;14.80;14.30;;;9.70;99.90;;;;;;5120606;28;20209;-62
2023/12/27 01:02:20;;;;;;;15.50;14.90;;;9.70;99.90;;;;;;5116650;28;20206;-60
2023/12/27 01:04:48;;;;;;;15.40;14.80;;;9.70;99.90;;;;;;5116031;28;20202;-62
2023/12/27 01:07:14;;;;;;;14.30;13.80;;;9.70;99.90;;;;;;5116428;27;20201;-62
2023/12/27 01:09:41;;;;;;;15.57;14.97;;;9.70;99.90;;;;;;5117151;28;20236;-62
2023/12/27 01:12:08;;;;;;;16.37;15.77;;;9.70;99.90;;;;;;5117274;28;20224;-62
2023/12/27 01:14:35;;;;;;;15.80;15.30;;;9.60;99.90;;;;;;5112592;28;20285;-62
2023/12/27 01:17:02;;;;;;;16.10;15.50;;;9.60;99.90;;;;;;5114438;27;20214;-61
2023/12/27 01:19:28;;;;;;;16.53;15.93;;;9.50;99.90;;;;;;5113732;28;20205;-60
2023/12/27 01:21:57;;;;;;;16.20;15.60;;;9.50;99.90;;;;;;5115218;28;20216;-61
2023/12/27 01:24:23;;;;;;;16.13;15.53;;;9.40;99.90;;;;;;5112974;28;20217;-62
2023/12/27 01:26:50;;;;;;;16.20;15.60;;;9.40;99.90;;;;;;5113688;28;20201;-63
2023/12/27 01:29:17;;;;;;;16.10;15.50;;;9.40;99.90;;;;;;5116270;27;20328;-62
2023/12/27 01:31:44;;;;;;;15.90;15.40;;;9.40;99.90;;;;;;5121088;28;20198;-62
2023/12/27 01:34:10;;;;;;;15.77;15.27;;;9.40;99.90;;;;;;5119790;27;20209;-62
2023/12/27 01:36:37;;;;;;;15.47;14.87;;;9.40;99.90;;;;;;5118756;27;20198;-61
2023/12/27 01:39:06;;;;;;;15.47;14.90;;;9.40;99.90;;;;;;5121876;27;20197;-62
2023/12/27 01:41:32;;;;;;;15.10;14.60;;;9.50;99.90;;;;;;5121606;27;20214;-61
2023/12/27 01:43:59;;;;;;;14.77;14.27;;;9.50;99.90;;;;;;5126700;27;20213;-61
2023/12/27 01:46:26;;;;;;;15.50;15.00;;;9.50;99.90;;;;;;5122744;27;20203;-61
2023/12/27 01:48:53;;;;;;;15.77;15.27;;;9.50;99.90;;;;;;5128157;27;20194;-61
2023/12/27 01:51:21;;;;;;;15.13;14.63;;;9.50;99.90;;;;;;5124327;27;20222;-60
2023/12/27 01:53:48;;;;;;;15.30;14.70;;;9.50;99.90;;;;;;5121246;27;20198;-61
2023/12/27 01:56:16;;;;;;;14.40;13.90;;;9.50;99.90;;;;;;5118351;27;20215;-62
2023/12/27 01:58:43;;;;;;;14.40;13.90;;;9.60;99.90;;;;;;5119721;27;20213;-63
2023/12/27 02:01:10;;;;;;;14.70;14.20;;;9.60;99.90;;;;;;5120521;27;20228;-62
2023/12/27 02:03:37;;;;;;;14.20;13.70;;;9.60;99.90;;;;;;5117526;27;20286;-62
2023/12/27 02:06:04;;;;;;;14.07;13.57;;;9.60;99.90;;;;;;5120965;27;20220;-61
2023/12/27 02:08:31;;;;;;;14.33;13.83;;;9.70;99.90;;;;;;5117645;27;20198;-62
2023/12/27 02:10:57;;;;;;;15.20;14.70;;;9.70;99.90;;;;;;5112364;27;20225;-62
2023/12/27 02:13:25;;;;;;;15.13;14.53;;;9.60;99.90;;;;;;5121769;27;20202;-61
2023/12/27 02:15:52;;;;;;;15.00;14.50;;;9.50;99.90;;;;;;5121085;27;20235;-61
2023/12/27 02:18:21;;;;;;;14.87;14.37;;;9.50;99.90;;;;;;5120267;27;20224;-60
2023/12/27 02:20:48;;;;;;;14.47;13.97;;;9.50;99.90;;;;;;5111353;27;20845;-62
2023/12/27 02:23:19;;;;;;;14.33;13.73;;;9.40;99.90;;;;;;5112086;28;20213;-61
2023/12/27 02:25:49;;;;;;;14.70;14.20;;;9.40;99.90;;;;;;5112874;28;20206;-62
2023/12/27 02:28:16;;;;;;;13.53;13.03;;;9.40;99.90;;;;;;5113582;28;20661;-61
2023/12/27 02:30:42;;;;;;;12.80;12.40;;;9.40;99.90;;;;;;5110672;28;20238;-62
2023/12/27 02:33:09;;;;;;;13.40;12.90;;;9.40;99.90;;;;;;5112632;28;20202;-61
2023/12/27 02:35:36;;;;;;;13.02;12.55;;;9.40;99.90;;;;;;5117927;28;20194;-62
2023/12/27 02:38:03;;;;;;;13.23;12.73;;;9.40;99.90;;;;;;5119678;28;20213;-61
2023/12/27 02:40:29;;;;;;;13.27;12.80;;;9.50;99.90;;;;;;5117675;28;20243;-60
2023/12/27 02:42:57;;;;;;;13.30;12.80;;;9.50;99.90;;;;;;5121284;28;20205;-61
2023/12/27 02:45:24;;;;;;;13.07;12.67;;;9.50;99.90;;;;;;5124752;28;20604;-61
2023/12/27 02:47:51;;;;;;;13.63;13.13;;;9.60;99.90;;;;;;5124025;27;20207;-62
2023/12/27 02:50:17;;;;;;;13.67;13.17;;;9.60;99.90;;;;;;5127160;28;20232;-62
2023/12/27 02:52:44;;;;;;;14.20;13.70;;;9.60;99.90;;;;;;5127181;28;20198;-64
2023/12/27 02:55:11;;;;;;;13.23;12.73;;;9.60;99.90;;;;;;5125920;28;20228;-61
2023/12/27 02:57:38;;;;;;;13.02;12.60;;;9.60;99.90;;;;;;5126259;28;20198;-61
2023/12/27 03:00:07;;;;;;;12.67;12.27;;;9.70;99.90;;;;;;5116675;28;20286;-67
2023/12/27 03:02:34;;;;;;;13.97;13.47;;;9.70;99.90;;;;;;5117556;27;20217;-61
2023/12/27 03:05:01;;;;;;;13.20;12.80;;;9.70;99.90;;;;;;5117126;28;20202;-62
2023/12/27 03:07:27;;;;;;;13.97;13.47;;;9.60;99.90;;;;;;5113652;28;20204;-62
2023/12/27 03:09:54;;;;;;;13.03;12.63;;;9.70;99.90;;;;;;5112247;28;20233;-62
2023/12/27 03:12:21;;;;;;;13.10;12.70;;;9.70;99.90;;;;;;5112310;28;20210;-61
2023/12/27 03:14:50;;;;;;;13.03;12.60;;;9.70;99.90;;;;;;5114154;28;20202;-61
2023/12/27 03:17:18;;;;;;;13.87;13.37;;;9.70;99.90;;;;;;5114585;28;20742;-61
2023/12/27 03:19:44;;;;;;;13.63;13.03;;;9.80;99.90;;;;;;5114707;28;20218;-60
2023/12/27 03:22:11;;;;;;;13.27;12.77;;;9.80;99.90;;;;;;5118353;27;20243;-62
2023/12/27 03:24:39;;;;;;;13.37;12.87;;;9.80;99.90;;;;;;5116694;28;20251;-62
2023/12/27 03:27:06;;;;;;;12.90;12.50;;;9.80;99.90;;;;;;5114974;28;20198;-61
2023/12/27 03:29:32;;;;;;;12.67;12.23;;;9.70;99.90;;;;;;5113352;28;20726;-62
2023/12/27 03:31:59;;;;;;;13.07;12.57;;;9.70;99.90;;;;;;5113836;27;20209;-60
2023/12/27 03:34:27;;;;;;;13.27;12.77;;;9.70;99.90;;;;;;5112582;28;20217;-62
2023/12/27 03:36:54;;;;;;;12.30;11.90;;;9.70;99.90;;;;;;5113101;28;20255;-62
2023/12/27 03:39:21;;;;;;;13.50;13.00;;;9.70;99.90;;;;;;5111806;28;20194;-61
2023/12/27 03:41:48;;;;;;;13.20;12.70;;;9.70;99.90;;;;;;5111602;28;20208;-61
2023/12/27 03:44:14;;;;;;;12.53;12.13;;;9.70;99.90;;;;;;5113316;28;20198;-61
2023/12/27 03:46:41;;;;;;;13.53;13.03;;;9.70;99.90;;;;;;5113393;28;20201;-61
2023/12/27 03:49:08;;;;;;;12.80;12.40;;;9.70;99.90;;;;;;5112997;28;20680;-62
2023/12/27 03:51:36;;;;;;;12.97;12.57;;;9.70;99.90;;;;;;5105949;28;20225;-61
2023/12/27 03:54:03;;;;;;;12.63;12.23;;;9.70;99.90;;;;;;5111575;28;20214;-61
2023/12/27 03:56:30;;;;;;;13.57;13.07;;;9.60;99.90;;;;;;5110527;28;20233;-61
2023/12/27 03:58:56;;;;;;;12.87;12.47;;;9.60;99.90;;;;;;5111706;28;20198;-62
2023/12/27 04:01:23;;;;;;;13.53;13.03;;;9.60;99.90;;;;;;5107993;28;20221;-61
2023/12/27 04:03:50;;;;;;;12.73;12.33;;;9.50;99.90;;;;;;5111947;28;20293;-61
2023/12/27 04:06:20;;;;;;;12.70;12.30;;;9.50;99.90;;;;;;5110586;28;20202;-61
2023/12/27 04:08:48;;;;;;;13.40;12.90;;;9.50;99.90;;;;;;5112077;28;20206;-62
2023/12/27 04:11:16;;;;;;;13.30;12.90;;;9.50;99.90;;;;;;5108569;28;20218;-62
2023/12/27 04:13:42;;;;;;;13.47;12.97;;;9.50;99.90;;;;;;5109777;28;20210;-62
2023/12/27 04:16:09;;;;;;;12.97;12.57;;;9.50;99.90;;;;;;5111540;28;20202;-61
2023/12/27 04:18:36;;;;;;;14.17;13.67;;;9.40;99.90;;;;;;5106723;28;20206;-62
2023/12/27 04:21:02;;;;;;;14.50;14.00;;;9.30;99.90;;;;;;5118651;27;20224;-62
2023/12/27 04:23:29;;;;;;;13.60;13.10;;;9.20;99.90;;;;;;5121192;27;20221;-61
2023/12/27 04:25:57;;;;;;;15.00;14.50;;;9.20;99.90;;;;;;5122223;27;20205;-62
2023/12/27 04:28:24;;;;;;;15.37;14.87;;;9.10;99.90;;;;;;5121741;27;20197;-63
2023/12/27 04:30:51;;;;;;;14.70;14.20;;;9.00;99.90;;;;;;5123151;27;20233;-62
2023/12/27 04:33:17;;;;;;;13.90;13.40;;;8.90;99.90;;;;;;5122056;27;20643;-61
2023/12/27 04:35:44;;;;;;;14.37;13.87;;;8.80;99.90;;;;;;5116995;27;20208;-62
2023/12/27 04:38:13;;;;;;;14.90;14.40;;;8.80;99.90;;;;;;5123260;27;20205;-62
2023/12/27 04:40:40;;;;;;;15.10;14.60;;;8.80;99.90;;;;;;5117629;27;20271;-62
2023/12/27 04:43:08;;;;;;;14.20;13.70;;;8.70;99.90;;;;;;5120428;27;20205;-62
2023/12/27 04:45:35;;;;;;;14.63;14.13;;;8.70;99.90;;;;;;5121029;27;20217;-62
2023/12/27 04:48:02;;;;;;;15.67;15.17;;;8.60;99.90;;;;;;5124934;27;20207;-62
2023/12/27 04:50:28;;;;;;;16.08;15.48;;;8.60;99.90;;;;;;5116472;27;20707;-62
2023/12/27 04:52:55;;;;;;;16.83;16.23;;;8.50;99.90;;;;;;5112441;28;20206;-60
2023/12/27 04:55:22;;;;;;;15.93;15.40;;;8.50;99.90;;;;;;5106914;28;20199;-62
2023/12/27 04:57:48;;;;;;;15.53;15.03;;;8.40;99.90;;;;;;5111581;28;20206;-61
2023/12/27 05:00:17;;;;;;;15.47;14.97;;;8.30;99.90;;;;;;5114337;28;20588;-62
2023/12/27 05:02:43;;;;;;;15.37;14.77;;;8.30;99.90;;;;;;5114243;28;20202;-61
2023/12/27 05:05:10;;;;;;;14.43;13.93;;;8.20;99.90;;;;;;5111363;28;20219;-61
2023/12/27 05:07:37;;;;;;;15.03;14.53;;;8.20;99.90;;;;;;5115073;27;20202;-62
2023/12/27 05:10:04;;;;;;;14.57;13.97;;;8.10;99.90;;;;;;5112629;27;20221;-62
2023/12/27 05:12:31;;;;;;;15.40;14.90;;;8.10;99.90;;;;;;5116564;28;20201;-62
2023/12/27 05:14:57;;;;;;;14.97;14.47;;;8.10;99.90;;;;;;5115854;27;20221;-60
2023/12/27 05:17:25;;;;;;;14.23;13.73;;;8.00;99.90;;;;;;5117005;27;20206;-60
2023/12/27 05:19:52;;;;;;;15.23;14.63;;;8.00;99.90;;;;;;5115413;28;20233;-62
2023/12/27 05:22:20;;;;;;;15.23;14.67;;;7.90;99.90;;;;;;5117997;27;20220;-62
2023/12/27 05:24:47;;;;;;;14.47;13.97;;;7.90;99.90;;;;;;5117569;27;20209;-61
2023/12/27 05:27:14;;;;;;;14.70;14.20;;;7.80;99.90;;;;;;5112642;28;20699;-60
2023/12/27 05:29:41;;;;;;;13.97;13.47;;;7.90;99.90;;;;;;5122805;27;20224;-62
2023/12/27 05:32:08;;;;;;;14.77;14.27;;;7.90;99.90;;;;;;5120049;28;20708;-62
2023/12/27 05:34:37;;;;;;;14.90;14.40;;;7.90;99.90;;;;;;5122074;28;20198;-62
2023/12/27 05:37:05;;;;;;;15.63;15.10;;;7.80;99.90;;;;;;5130040;28;20205;-62
2023/12/27 05:39:31;;;;;;;15.33;14.80;;;7.70;99.90;;;;;;5128065;28;20190;-61
2023/12/27 05:41:58;;;;;;;16.57;15.97;;;7.70;99.90;;;;;;5121863;27;20587;-62
2023/12/27 05:44:25;;;;;;;15.00;14.43;;;7.60;99.90;;;;;;5114167;28;20202;-61
2023/12/27 05:46:52;;;;;;;14.93;14.43;;;7.60;99.90;;;;;;5114833;27;20210;-62
2023/12/27 05:49:18;;;;;;;14.73;14.20;;;7.60;99.90;;;;;;5123102;27;20569;-61
2023/12/27 05:51:46;;;;;;;14.77;14.27;;;7.50;99.90;;;;;;5115591;27;20222;-61
2023/12/27 05:54:14;;;;;;;14.37;13.77;;;7.50;99.90;;;;;;5118064;27;20194;-62
2023/12/27 05:56:41;;;;;;;13.90;13.40;;;7.40;99.90;;;;;;5119011;27;20209;-61
2023/12/27 05:59:07;;;;;;;15.07;14.57;;;7.40;99.90;;;;;;5116139;27;20205;-63
2023/12/27 06:01:34;;;;;;;14.77;14.27;;;7.40;99.90;;;;;;5119818;27;20215;-60
2023/12/27 06:04:03;;;;;;;14.97;14.47;;;7.30;99.90;;;;;;5122481;27;20210;-61
2023/12/27 06:06:30;;;;;;;14.90;14.40;;;7.30;99.90;;;;;;5117820;27;20546;-62
2023/12/27 06:08:58;;;;;;;14.67;14.17;;;7.40;99.90;;;;;;5120961;27;20212;-62
2023/12/27 06:11:25;;;;;;;15.77;15.17;;;7.40;99.90;;;;;;5115355;28;20232;-62
2023/12/27 06:13:52;;;;;;;15.40;14.80;;;7.40;99.90;;;;;;5117799;27;20198;-60
2023/12/27 06:16:18;;;;;;;14.23;13.73;;;7.40;99.90;;;;;;5117327;27;20205;-61
2023/12/27 06:18:45;;;;;;;15.03;14.53;;;7.40;99.90;;;;;;5113870;27;20213;-62
2023/12/27 06:21:12;;;;;;;14.80;14.30;;;7.30;99.90;;;;;;5116433;27;20218;-62
2023/12/27 06:23:38;;;;;;;15.13;14.60;;;7.30;99.90;;;;;;5118386;27;20285;-61
2023/12/27 06:26:08;;;;;;;14.67;14.17;;;7.30;99.90;;;;;;5114012;28;20209;-62
2023/12/27 06:28:34;;;;;;;14.80;14.30;;;7.30;99.90;;;;;;5118669;27;20214;-62
2023/12/27 06:31:01;;;;;;;15.20;14.70;;;7.30;99.90;;;;;;5114493;27;20237;-62
2023/12/27 06:33:28;;;;;;;15.60;15.10;;;7.40;99.90;;;;;;5115903;27;20202;-62
2023/12/27 06:35:54;;;;;;;15.77;15.17;;;7.40;99.90;;;;;;5115918;27;20205;-60
2023/12/27 06:38:21;;;;;;;15.20;14.70;;;7.50;99.90;;;;;;5113630;28;20221;-61
2023/12/27 06:40:48;;;;;;;14.27;13.77;;;7.50;99.90;;;;;;5112335;28;20218;-62
2023/12/27 06:43:16;;;;;;;14.70;14.20;;;7.50;99.90;;;;;;5122645;27;20581;-61
2023/12/27 06:45:43;;;;;;;14.97;14.43;;;7.50;99.90;;;;;;5120358;27;20205;-62
2023/12/27 06:48:09;;;;;;;14.00;13.50;;;7.60;99.90;;;;;;5117678;27;20553;-62
2023/12/27 06:50:36;;;;;;;14.40;13.90;;;7.60;99.90;;;;;;5113725;28;20218;-62
2023/12/27 06:53:03;;;;;;;14.53;14.03;;;7.50;99.90;;;;;;5123469;27;20647;-61
2023/12/27 06:55:30;;;;;;;14.43;13.93;;;7.50;99.90;;;;;;5119738;27;20226;-61
2023/12/27 06:57:57;;;;;;;13.60;13.10;;;7.50;99.90;;;;;;5115247;27;20198;-64
2023/12/27 07:00:25;;;;;;;14.03;13.43;;;7.50;99.90;;;;;;5118671;27;20246;-65
2023/12/27 07:02:52;;;;;;;14.60;14.10;;;7.50;99.90;;;;;;5115470;27;20202;-67
2023/12/27 07:05:18;;;;;;;14.60;14.10;;;7.50;99.90;;;;;;5114690;28;20577;-66
2023/12/27 07:07:46;;;;;;;15.20;14.60;;;7.50;99.90;;;;;;5117615;27;20206;-66
2023/12/27 07:10:12;;;;;;;15.30;14.73;;;7.40;99.90;;;;;;5114482;27;20241;-65
2023/12/27 07:12:39;;;;;;;15.00;14.47;;;7.30;99.90;;;;;;5114064;27;20225;-66
2023/12/27 07:15:07;;;;;;;15.40;14.80;;;7.20;99.90;;;;;;5118093;27;20206;-65
2023/12/27 07:17:35;;;;;;;14.40;13.90;;;7.20;99.90;;;;;;5118165;27;20569;-65
2023/12/27 07:20:02;;;;;;;14.73;14.13;;;7.20;99.90;;;;;;5118482;27;20632;-66
2023/12/27 07:22:29;;;;;;;14.63;14.13;;;7.20;99.90;;;;;;5116408;27;20194;-66
2023/12/27 07:24:55;;;;;;;14.10;13.60;;;7.20;99.90;;;;;;5121604;27;20210;-65
2023/12/27 07:27:22;;;;;;;15.17;14.57;;;7.30;99.90;;;;;;5114452;28;20198;-66
2023/12/27 07:29:49;;;;;;;14.27;13.77;;;7.30;99.90;;;;;;5116332;27;20226;-64
2023/12/27 07:32:16;;;;;;;14.30;13.80;;;7.30;99.90;;;;;;5111610;27;20222;-65
2023/12/27 07:34:44;;;;;;;15.20;14.70;;;7.40;99.90;;;;;;5116150;27;20213;-65
2023/12/27 07:37:10;;;;;;;14.90;14.40;;;7.40;99.90;;;;;;5114860;27;20677;-64
2023/12/27 07:39:37;;;;;;;16.30;15.70;;;7.40;99.90;;;;;;5117843;27;20217;-65
2023/12/27 07:42:04;;;;;;;15.23;14.73;;;7.40;99.90;;;;;;5117426;28;20206;-64
2023/12/27 07:44:31;;;;;;;14.23;13.73;;;7.50;99.90;;;;;;5124729;27;20235;-65
2023/12/27 07:46:58;;;;;;;15.23;14.63;;;7.50;99.90;;;;;;5123194;27;20197;-66
2023/12/27 07:49:25;;;;;;;14.20;13.70;;;7.50;99.90;;;;;;5119006;27;20221;-66
2023/12/27 07:51:53;;;;;;;13.53;13.03;;;7.60;99.90;;;;;;5120827;27;20226;-66
2023/12/27 07:54:21;;;;;;;15.00;14.50;;;7.60;99.90;;;;;;5113865;27;20198;-65
2023/12/27 07:56:48;;;;;;;15.00;14.50;;;7.50;99.90;;;;;;5120434;27;20194;-65
2023/12/27 07:59:14;;;;;;;15.00;14.50;;;7.50;99.90;;;;;;5113327;28;20224;-66
2023/12/27 08:01:41;;;;;;;14.03;13.53;;;7.50;99.90;;;;;;5117843;27;20672;-64
2023/12/27 08:04:09;;;;;;;15.77;15.13;;;7.50;99.90;;;;;;5115037;27;20208;-66
2023/12/27 08:06:35;;;;;;;16.03;15.43;;;7.50;99.90;;;;;;5114211;28;20254;-64
2023/12/27 08:09:04;;;;;;;15.00;14.50;;;7.40;99.90;;;;;;5114403;27;20683;-64
2023/12/27 08:11:30;;;;;;;15.00;14.50;;;7.40;99.90;;;;;;5113825;27;20226;-66
2023/12/27 08:13:57;;;;;;;14.93;14.43;;;7.40;99.90;;;;;;5115000;27;20205;-65
2023/12/27 08:16:25;;;;;;;14.40;13.90;;;7.50;99.90;;;;;;5113794;28;20205;-65
2023/12/27 08:18:53;;;;;;;14.20;13.70;;;7.60;99.90;;;;;;5113016;28;20255;-66
2023/12/27 08:21:20;;;;;;;14.30;13.80;;;7.60;99.90;;;;;;5125038;27;20221;-65
2023/12/27 08:23:46;;;;;;;14.00;13.50;;;7.70;99.90;;;;;;5128477;28;20213;-64
2023/12/27 08:26:14;;;;;;;14.77;14.27;;;7.70;99.90;;;;;;5120267;27;20197;-65
2023/12/27 08:28:41;;;;;;;14.30;13.80;;;7.70;99.90;;;;;;5113328;27;20199;-65
2023/12/27 08:31:09;;;;;;;13.90;13.40;;;7.80;99.90;;;;;;5120817;27;20261;-65
2023/12/27 08:33:36;;;;;;;14.10;13.60;;;7.80;99.90;;;;;;5122915;27;20293;-64
2023/12/27 08:36:02;;;;;;;14.80;14.27;;;7.80;99.90;;;;;;5113809;27;20221;-65
2023/12/27 08:38:29;;;;;;;14.73;14.23;;;7.80;99.90;;;;;;5114591;28;20205;-65
2023/12/27 08:40:57;;;;;;;14.87;14.37;;;7.80;99.90;;;;;;5115078;27;20225;-65
2023/12/27 08:43:29;;;;;;;13.50;13.00;;;7.80;99.90;;;;;;5113992;27;20198;-64
2023/12/27 08:45:56;;;;;;;14.50;14.00;;;7.70;99.90;;;;;;5111958;28;20248;-65
2023/12/27 08:48:22;;;;;;;14.70;14.20;;;7.70;99.90;;;;;;5113004;28;20202;-66
2023/12/27 08:50:49;;;;;;;14.47;13.97;;;7.70;99.90;;;;;;5109690;28;20214;-64
2023/12/27 08:53:16;;;;;;;14.87;14.37;;;7.80;99.90;;;;;;5115133;27;20252;-65
2023/12/27 08:55:43;;;;;;;15.00;14.50;;;7.90;99.90;;;;;;5122656;27;20202;-65
2023/12/27 08:58:12;;;;;;;13.77;13.27;;;7.90;99.90;;;;;;5124316;27;20216;-64
2023/12/27 09:00:40;;;;;;;14.90;14.40;;;7.90;99.90;;;;;;5124877;27;20221;-64
2023/12/27 09:03:07;;;;;;;13.80;13.30;;;8.10;99.90;;;;;;5125824;27;20551;-64
2023/12/27 09:05:34;;;;;;;13.03;12.57;;;8.20;99.90;;;;;;5123172;27;20561;-64
2023/12/27 09:08:00;;;;;;;11.93;11.53;;;8.20;99.90;;;;;;5121789;28;20289;-65
2023/12/27 09:10:27;;;;;;;11.97;11.57;;;8.40;99.90;;;;;;5119015;27;20213;-64
2023/12/27 09:12:54;;;;;;;12.80;12.30;;;8.50;99.90;;;;;;5120212;28;20221;-65
2023/12/27 09:15:20;;;;;;;11.70;11.30;;;8.60;99.90;;;;;;5124583;27;20276;-66
2023/12/27 09:17:49;;;;;;;11.43;11.03;;;8.80;99.90;;;;;;5123517;28;20224;-65
2023/12/27 09:20:15;;;;;;;11.27;10.87;;;9.00;99.90;;;;;;5127421;27;20239;-66
2023/12/27 09:22:42;;;;;;;12.30;11.90;;;9.20;99.90;;;;;;5125241;27;20199;-66
2023/12/27 09:25:12;;;;;;;12.20;11.80;;;9.30;99.90;;;;;;5125898;27;20201;-65
2023/12/27 09:27:38;;;;;;;12.63;12.13;;;9.30;99.90;;;;;;5130375;27;20270;-65
2023/12/27 09:30:06;;;;;;;12.10;11.70;;;9.30;99.90;;;;;;5129466;27;20221;-64
2023/12/27 09:32:33;;;;;;;12.70;12.20;;;9.40;99.90;;;;;;5129371;27;20241;-65
2023/12/27 09:35:02;;;;;;;12.00;11.60;;;9.40;99.90;;;;;;5125354;28;20197;-65
2023/12/27 09:37:30;;;;;;;11.83;11.43;;;9.50;99.90;;;;;;5128074;27;20570;-65
2023/12/27 09:39:57;;;;;;;11.57;11.17;;;9.60;99.90;;;;;;5122187;28;20299;-66
2023/12/27 09:42:24;;;;;;;11.90;11.50;;;9.50;99.90;;;;;;5124976;27;20198;-64
2023/12/27 09:44:53;;;;;;;11.80;11.40;;;9.50;99.90;;;;;;5128174;27;20194;-65
2023/12/27 09:47:22;;;;;;;11.10;10.70;;;9.40;99.90;;;;;;5126887;27;20201;-64
2023/12/27 09:49:50;;;;;;;11.60;11.20;;;9.30;99.90;;;;;;5130607;27;20226;-66
2023/12/27 09:52:20;;;;;;;11.70;11.30;;;9.30;99.90;;;;;;5131613;27;20266;-64
2023/12/27 09:54:47;;;;;;;11.70;11.30;;;9.30;99.90;;;;;;5130715;27;20206;-64
2023/12/27 09:57:14;;;;;;;12.40;12.00;;;9.40;99.90;;;;;;5133576;27;20201;-66
2023/12/27 09:59:46;;;;;;;11.80;11.40;;;9.50;99.90;;;;;;5131812;27;20225;-65
2023/12/27 10:02:19;;;;;;;11.17;10.77;;;9.60;99.90;;;;;;5129022;27;20205;-65
2023/12/27 10:04:56;;;;;;;12.00;11.50;;;9.70;99.90;;;;;;5126781;27;20205;-65
2023/12/27 10:07:25;;;;;;;11.30;10.90;;;9.70;99.90;;;;;;5135655;27;20208;-64
2023/12/27 10:09:53;;;;;;;11.43;11.03;;;10.00;99.90;;;;;;5127348;27;20221;-64
2023/12/27 10:12:21;;;;;;;11.30;10.90;;;10.10;99.90;;;;;;5129287;27;20214;-65
2023/12/27 10:14:49;;;;;;;11.57;11.17;;;10.40;99.90;;;;;;5123340;27;20251;-65
2023/12/27 10:17:16;;;;;;;11.40;11.00;;;10.50;99.90;;;;;;5136457;27;20208;-66
2023/12/27 10:19:44;;;;;;;11.57;11.17;;;10.60;99.90;;;;;;5132090;27;20247;-66
2023/12/27 10:22:13;;;;;;;11.10;10.70;;;10.60;99.90;;;;;;5139546;27;20201;-65
2023/12/27 10:24:41;;;;;;;11.90;11.50;;;10.70;99.90;;;;;;5135672;27;20209;-65
2023/12/27 10:27:09;;;;;;;12.13;11.63;;;10.80;99.90;;;;;;5130091;27;20208;-67
2023/12/27 10:29:36;;;;;;;11.83;11.43;;;11.00;99.90;;;;;;5118788;27;20221;-66
2023/12/27 10:32:06;;;;;;;12.37;11.97;;;11.20;99.90;;;;;;5126080;27;20217;-63
2023/12/27 10:34:33;;;;;;;12.67;12.27;;;11.40;99.90;;;;;;5124418;27;20284;-64
2023/12/27 10:37:01;;;;;;;14.03;13.53;;;11.50;99.90;;;;;;5128054;27;20197;-63
2023/12/27 10:39:28;;;;;;;12.97;12.57;;;11.70;99.90;;;;;;5128987;27;20235;-65
2023/12/27 10:41:56;;;;;;;12.67;12.27;;;11.80;99.90;;;;;;5127790;27;20190;-63
2023/12/27 10:44:23;;;;;;;12.00;11.60;;;11.80;99.90;;;;;;5133306;27;20208;-65
2023/12/27 10:46:50;;;;;;;12.80;12.30;;;11.80;99.90;;;;;;5125419;27;20638;-63
2023/12/27 10:49:18;;;;;;;12.60;12.10;;;11.90;99.90;;;;;;5129734;27;20663;-65
2023/12/27 10:51:48;;;;;;;12.33;11.83;;;11.90;99.90;;;;;;5129412;27;20197;-66
2023/12/27 10:54:15;;;;;;;11.93;11.53;;;11.80;99.90;;;;;;5133912;27;20217;-66
2023/12/27 10:56:42;;;;;;;11.90;11.50;;;11.80;99.90;;;;;;5133260;27;20765;-66
2023/12/27 10:59:10;;;;;;;12.73;12.30;;;11.80;99.90;;;;;;5125550;27;20665;-66
2023/12/27 11:01:39;;;;;;;12.90;12.50;;;11.50;99.90;;;;;;5131582;27;20228;-64
2023/12/27 11:04:08;;;;;;;13.30;12.80;;;11.40;99.90;;;;;;5121466;27;20198;-66
2023/12/27 11:06:36;;;;;;;13.57;13.03;;;11.30;99.90;;;;;;5123421;27;20193;-65
2023/12/27 11:09:07;;;;;;;13.57;13.07;;;11.20;99.90;;;;;;5128518;27;20197;-65
2023/12/27 11:11:37;;;;;;;13.77;13.27;;;11.20;99.90;;;;;;5125135;27;20247;-63
2023/12/27 11:14:05;;;;;;;14.53;13.93;;;11.20;99.90;;;;;;5127831;27;20760;-66
2023/12/27 11:16:37;;;;;;;14.23;13.73;;;11.10;99.90;;;;;;5133205;27;20193;-68
2023/12/27 11:19:04;;;;;;;14.03;13.43;;;11.10;99.90;;;;;;5127483;27;20229;-66
2023/12/27 11:21:31;;;;;;;13.77;13.27;;;11.00;99.90;;;;;;5121781;27;20751;-64
2023/12/27 11:23:58;;;;;;;14.53;14.03;;;11.00;99.90;;;;;;5123878;27;20568;-64
2023/12/27 11:26:25;;;;;;;15.17;14.47;;;11.10;99.90;;;;;;5117408;27;20205;-65
2023/12/27 11:28:51;;;;;;;14.40;13.90;;;11.10;99.90;;;;;;5121996;27;20209;-66
2023/12/27 11:31:20;;;;;;;13.63;13.13;;;11.10;99.90;;;;;;5127037;27;20292;-67
2023/12/27 11:33:49;;;;;;;15.53;14.93;;;11.10;99.90;;;;;;5122764;27;20233;-65
2023/12/27 11:36:17;;;;;;;14.53;14.03;;;11.10;99.90;;;;;;5123462;27;20250;-68
2023/12/27 11:38:46;;;;;;;14.30;13.77;;;11.00;99.90;;;;;;5117649;27;20285;-65
2023/12/27 11:41:12;;;;;;;15.97;15.37;;;11.00;99.90;;;;;;5118337;27;20223;-66
2023/12/27 11:43:53;;;;;;;14.30;13.80;;;11.00;99.90;;;;;;5116232;27;20205;-66
2023/12/27 11:46:26;;;;;;;14.27;13.77;;;11.00;99.90;;;;;;5120090;27;20204;-66
2023/12/27 11:48:54;;;;;;;14.87;14.27;;;11.00;99.90;;;;;;5117788;27;21489;-64
2023/12/27 11:51:32;;;;;;;13.07;12.57;;;10.90;99.90;;;;;;5113013;27;20223;-64
2023/12/27 11:53:59;;;;;;;13.40;12.90;;;11.00;99.90;;;;;;5123255;27;20214;-66
2023/12/27 11:56:29;;;;;;;12.80;12.30;;;11.00;99.90;;;;;;5121538;27;20225;-66
2023/12/27 11:58:56;;;;;;;14.00;13.50;;;11.20;99.90;;;;;;5122697;27;20258;-65
2023/12/27 12:01:27;;;;;;;13.13;12.63;;;11.30;99.90;;;;;;5121381;27;20221;-65
2023/12/27 12:04:31;;;;;;;13.60;13.10;;;11.30;99.90;;;;;;5114649;27;20206;-64
2023/12/27 12:07:30;;;;;;;14.90;14.37;;;11.20;99.90;;;;;;5114051;27;20246;-64
2023/12/27 12:09:58;;;;;;;13.80;13.30;;;11.30;99.90;;;;;;5105711;27;20218;-65
2023/12/27 12:12:26;;;;;;;13.03;12.57;;;11.40;99.90;;;;;;5113900;27;20614;-65
2023/12/27 12:14:54;;;;;;;13.50;13.00;;;11.40;99.90;;;;;;5111957;27;20293;-65
2023/12/27 12:17:21;;;;;;;12.97;12.47;;;11.50;99.90;;;;;;5123884;27;20209;-65
2023/12/27 12:19:49;;;;;;;14.33;13.77;;;11.50;99.90;;;;;;5123617;27;20224;-65
2023/12/27 12:22:17;;;;;;;13.87;13.37;;;11.60;99.90;;;;;;5120562;27;21025;-65
2023/12/27 12:24:44;;;;;;;13.67;13.17;;;11.50;99.90;;;;;;5117468;27;20202;-65
2023/12/27 12:27:14;;;;;;;13.20;12.70;;;11.50;99.90;;;;;;5120393;27;21155;-64
2023/12/27 12:29:41;;;;;;;13.60;13.10;;;11.50;99.90;;;;;;5119647;27;20314;-65
2023/12/27 12:32:08;;;;;;;14.17;13.63;;;11.30;99.90;;;;;;5129802;27;20580;-64
2023/12/27 12:34:35;;;;;;;13.70;13.20;;;11.30;99.90;;;;;;5118689;27;20222;-64
2023/12/27 12:37:01;;;;;;;13.97;13.40;;;11.30;99.90;;;;;;5120079;27;20209;-66